This is the latest recevied weather packets stored in our database for station/object KK7ISX. If no packets are shown the sender has not sent any weather packets the latest 1 day(s).
| Time | Temp. | Humidity | Pressure | Rain* | Wind** | Luminosity | Snow |
|---|---|---|---|---|---|---|---|
| 1778053454 | 14.44° C | 51% | 1013.5 hPa | 0 mm | - | 0 W/m² | - |
| 1778053151 | 14.44° C | 50% | 1013.4 hPa | 0 mm | - | 0 W/m² | - |
| 1778052849 | 14.44° C | 51% | 1013.3 hPa | 0 mm | - | 0 W/m² | - |
| 1778051639 | 15° C | 49% | 1013.3 hPa | 0 mm | - | 0 W/m² | - |
| 1778051335 | 15° C | 50% | 1013.4 hPa | 0 mm | - | 0 W/m² | - |
| 1778051032 | 15° C | 49% | 1013.3 hPa | 0 mm | - | 0 W/m² | - |
| 1778050729 | 15° C | 49% | 1013.2 hPa | 0 mm | - | 0 W/m² | - |
| 1778050427 | 15° C | 50% | 1013.1 hPa | 0 mm | - | 0 W/m² | - |
| 1778049214 | 16.11° C | 45% | 1012.5 hPa | 0 mm | - | 0 W/m² | - |
| 1778046792 | 17.78° C | 42% | 1011.7 hPa | 0 mm | - | 0 W/m² | - |
| 1778045881 | 17.78° C | 42% | 1011.5 hPa | 0 mm | - | 0 W/m² | - |
| 1778045581 | 17.78° C | 42% | 1011.7 hPa | 0 mm | - | 0 W/m² | - |
| 1778045278 | 17.78° C | 42% | 1011.3 hPa | 0 mm | - | 0 W/m² | - |
| 1778044068 | 18.33° C | 40% | 1011 hPa | 0 mm | - | 0 W/m² | - |
| 1778043765 | 18.33° C | 40% | 1011 hPa | 0 mm | - | 0 W/m² | - |
| 1778043461 | 18.33° C | 40% | 1011.1 hPa | 0 mm | - | 0 W/m² | - |
| 1778043158 | 18.33° C | 40% | 1010.8 hPa | 0 mm | - | 0 W/m² | - |
| 1778042552 | 18.89° C | 38% | 1010.8 hPa | 0 mm | - | 0 W/m² | - |
| 1778042250 | 18.89° C | 38% | 1010.9 hPa | 0 mm | - | 0 W/m² | - |
| 1778041947 | 18.89° C | 38% | 1010.7 hPa | 0 mm | - | 0 W/m² | - |
| 1778041646 | 19.44° C | 37% | 1010.7 hPa | 0 mm | - | 0 W/m² | - |
| 1778041344 | 19.44° C | 37% | 1010.5 hPa | 0 mm | - | 0 W/m² | - |
| 1778041042 | 20° C | 36% | 1010.5 hPa | 0 mm | - | 0 W/m² | - |
| 1778040739 | 20° C | 36% | 1010.4 hPa | 0 mm | - | 0 W/m² | - |
| 1778039830 | 20.56° C | 35% | 1010 hPa | 0 mm | - | 0 W/m² | - |
* Rain latest hour (hover to see other rain measurements)
** Current wind speed in m/s (hover to see current wind gust speed)